Time;durP1;ratioP1;P1;durP2;ratioP2;P2;SDS_P1;SDS_P2;PMS_P1;PMS_P2;Temp;Humidity;BMP_temperature;BMP_pressure;BME280_temperature;BME280_humidity;BME280_pressure;Samples;Min_cycle;Max_cycle;Signal;HPM_P1;HPM_P2
2021/06/18 00:00:12;;;;;;;;;;;;;;;26.31;62.44;100537.91;5088051;28;726;-75
2021/06/18 00:02:58;;;;;;;;;;;;;;;26.28;62.34;100528.34;5092021;28;1358;-75
2021/06/18 00:05:43;;;;;;;;;;;;;;;26.28;61.92;100524.84;5092837;28;1917;-75
2021/06/18 00:08:29;;;;;;;;;;;;;;;26.24;61.74;100531.44;5108495;28;944;-74
2021/06/18 00:11:14;;;;;;;;;;;;;;;26.25;61.55;100528.63;5107965;28;1370;-75
2021/06/18 00:13:59;;;;;;;;;;;;;;;26.26;61.18;100532.16;5092100;28;953;-74
2021/06/18 00:16:45;;;;;;;;;;;;;;;26.19;61.22;100528.34;5107551;28;1192;-74
2021/06/18 00:19:30;;;;;;;;;;;;;;;26.26;61.22;100524.16;5108309;28;1049;-73
2021/06/18 00:22:15;;;;;;;;;;;;;;;26.14;61.10;100528.75;5107999;28;1281;-73
2021/06/18 00:25:01;;;;;;;;;;;;;;;26.22;60.78;100534.25;5108037;28;1964;-73
2021/06/18 00:27:46;;;;;;;;;;;;;;;26.19;60.88;100536.34;5106678;28;1286;-73
2021/06/18 00:30:32;;;;;;;;;;;;;;;26.07;60.99;100525.78;5107885;28;627;-73
2021/06/18 00:33:17;;;;;;;;;;;;;;;26.14;61.08;100528.75;5107807;28;1287;-73
2021/06/18 00:36:03;;;;;;;;;;;;;;;26.11;61.22;100521.03;5107709;28;1307;-73
2021/06/18 00:38:48;;;;;;;;;;;;;;;26.11;61.03;100523.69;5092184;28;1033;-74
2021/06/18 00:41:33;;;;;;;;;;;;;;;26.12;61.27;100519.16;5092182;28;1208;-75
2021/06/18 00:44:18;;;;;;;;;;;;;;;26.05;61.13;100511.72;5108152;28;1977;-74
2021/06/18 00:47:04;;;;;;;;;;;;;;;26.04;60.27;100514.56;5092163;28;1252;-74
2021/06/18 00:49:52;;;;;;;;;;;;;;;25.93;60.81;100507.50;5108289;28;560;-75
2021/06/18 00:52:37;;;;;;;;;;;;;;;26.08;60.26;100515.97;5111841;28;1295;-74
2021/06/18 00:55:22;;;;;;;;;;;;;;;26.01;60.18;100517.50;5096359;28;671;-75
2021/06/18 00:58:08;;;;;;;;;;;;;;;25.99;60.12;100511.47;5111344;28;1280;-75
2021/06/18 01:00:53;;;;;;;;;;;;;;;25.97;60.16;100505.41;5111434;28;671;-74
2021/06/18 01:03:38;;;;;;;;;;;;;;;25.92;60.53;100510.31;5111040;28;1901;-72
2021/06/18 01:06:36;;;;;;;;;;;;;;;25.89;60.39;100505.28;5111247;28;1405;-72
2021/06/18 01:09:22;;;;;;;;;;;;;;;25.97;59.75;100503.59;5110925;28;833;-73
2021/06/18 01:12:11;;;;;;;;;;;;;;;25.94;59.67;100503.88;5111198;28;1298;-74
2021/06/18 01:15:05;;;;;;;;;;;;;;;25.98;59.53;100499.94;5110607;28;643;-71
2021/06/18 01:17:55;;;;;;;;;;;;;;;25.97;59.65;100503.59;5094938;28;1366;-74
2021/06/18 01:20:53;;;;;;;;;;;;;;;25.97;59.74;100513.41;5110821;28;662;-74
2021/06/18 01:23:38;;;;;;;;;;;;;;;25.89;59.91;100510.59;5110889;28;971;-73
2021/06/18 01:26:26;;;;;;;;;;;;;;;25.93;59.98;100506.69;5095177;28;1266;-72
2021/06/18 01:29:13;;;;;;;;;;;;;;;25.88;59.94;100504.41;5111496;28;993;-72
2021/06/18 01:32:01;;;;;;;;;;;;;;;25.88;60.04;100507.09;5095232;28;1453;-73
2021/06/18 01:34:48;;;;;;;;;;;;;;;25.93;59.14;100506.69;5110687;28;568;-73
2021/06/18 01:37:34;;;;;;;;;;;;;;;25.83;58.87;100505.81;5110438;28;1292;-73
2021/06/18 01:40:20;;;;;;;;;;;;;;;25.85;58.59;100510.03;5110475;28;690;-74
2021/06/18 01:43:06;;;;;;;;;;;;;;;25.83;58.27;100506.69;5109602;28;1350;-73
2021/06/18 01:45:53;;;;;;;;;;;;;;;25.79;58.17;100499.91;5110807;28;1897;-74
2021/06/18 01:48:39;;;;;;;;;;;;;;;25.82;58.11;100498.78;5110756;28;1117;-74
2021/06/18 01:51:26;;;;;;;;;;;;;;;25.80;58.36;100496.28;5095102;28;1275;-74
2021/06/18 01:54:11;;;;;;;;;;;;;;;25.78;58.04;100500.03;5110658;28;1085;-74
2021/06/18 01:56:58;;;;;;;;;;;;;;;25.66;57.92;100495.81;5109859;28;1333;-73
2021/06/18 01:59:44;;;;;;;;;;;;;;;25.79;57.35;100493.72;5110200;28;1133;-73
2021/06/18 02:02:31;;;;;;;;;;;;;;;25.70;57.52;100490.06;5109609;28;1491;-73
2021/06/18 02:05:17;;;;;;;;;;;;;;;25.79;57.29;100485.72;5094497;28;1937;-73
2021/06/18 02:08:02;;;;;;;;;;;;;;;25.77;57.65;100485.03;5109483;28;1251;-72
2021/06/18 02:10:48;;;;;;;;;;;;;;;25.73;57.46;100483.63;5110500;28;608;-72
2021/06/18 02:13:34;;;;;;;;;;;;;;;25.75;57.54;100476.31;5109913;28;1118;-73
2021/06/18 02:16:20;;;;;;;;;;;;;;;25.71;57.55;100470.44;5109709;28;1284;-73
2021/06/18 02:19:07;;;;;;;;;;;;;;;25.70;57.94;100476.75;5094110;28;1062;-73
2021/06/18 02:22:03;;;;;;;;;;;;;;;25.67;57.68;100479.69;5111433;28;1252;-73
2021/06/18 02:24:55;;;;;;;;;;;;;;;25.63;57.86;100472.09;5097194;28;1966;-71
2021/06/18 02:27:41;;;;;;;;;;;;;;;25.59;58.38;100470.69;5094494;28;1367;-73
2021/06/18 02:30:27;;;;;;;;;;;;;;;25.60;58.63;100467.88;5109783;28;655;-73
2021/06/18 02:33:13;;;;;;;;;;;;;;;25.63;58.67;100464.06;5109411;28;1386;-72
2021/06/18 02:35:58;;;;;;;;;;;;;;;25.63;58.37;100472.09;5109311;28;1236;-72
2021/06/18 02:38:44;;;;;;;;;;;;;;;25.65;58.83;100470.13;5109476;28;937;-72
2021/06/18 02:41:29;;;;;;;;;;;;;;;25.64;58.90;100484.44;5109765;28;1263;-74
2021/06/18 02:44:15;;;;;;;;;;;;;;;25.61;59.35;100482.91;5093851;28;1905;-72
2021/06/18 02:47:06;;;;;;;;;;;;;;;25.70;59.12;100486.56;5112088;27;1438;-71
2021/06/18 02:50:13;;;;;;;;;;;;;;;25.66;59.40;100486.00;5109133;28;596;-70
2021/06/18 02:53:22;;;;;;;;;;;;;;;25.64;59.60;100489.78;5108793;28;1286;-72
2021/06/18 02:56:25;;;;;;;;;;;;;;;25.68;59.45;100497.38;5108456;28;1293;-72
2021/06/18 02:59:18;;;;;;;;;;;;;;;25.71;59.14;100504.25;5109132;28;986;-72
2021/06/18 03:02:04;;;;;;;;;;;;;;;25.77;58.90;100511.72;5088901;28;1270;-71
2021/06/18 03:04:51;;;;;;;;;;;;;;;25.77;59.37;100527.72;5088290;28;1930;-71
2021/06/18 03:07:37;;;;;;;;;;;;;;;25.71;59.36;100520.28;5088632;28;1256;-70
2021/06/18 03:10:26;;;;;;;;;;;;;;;25.77;59.15;100514.38;5088819;28;631;-71
2021/06/18 03:13:17;;;;;;;;;;;;;;;25.67;58.41;100516.19;5088109;28;1335;-71
2021/06/18 03:16:05;;;;;;;;;;;;;;;25.68;57.70;100525.88;5088260;28;1351;-71
2021/06/18 03:18:53;;;;;;;;;;;;;;;25.67;57.70;100521.50;5088884;28;1121;-71
2021/06/18 03:21:39;;;;;;;;;;;;;;;25.67;57.38;100532.19;5088537;28;1315;-71
2021/06/18 03:24:26;;;;;;;;;;;;;;;25.70;56.67;100537.25;5088426;28;2093;-71
2021/06/18 03:27:12;;;;;;;;;;;;;;;25.71;56.40;100538.94;5096840;27;1289;-71
2021/06/18 03:29:57;;;;;;;;;;;;;;;25.66;56.20;100535.81;5129323;27;635;-71
2021/06/18 03:32:42;;;;;;;;;;;;;;;25.65;56.30;100540.34;5129070;27;1283;-71
2021/06/18 03:35:29;;;;;;;;;;;;;;;25.54;56.36;100538.59;5113065;27;670;-72
2021/06/18 03:38:16;;;;;;;;;;;;;;;25.53;56.30;100534.25;5128855;27;1299;-71
2021/06/18 03:41:02;;;;;;;;;;;;;;;25.59;56.21;100545.38;5128481;27;1376;-71
2021/06/18 03:43:48;;;;;;;;;;;;;;;25.56;56.38;100556.31;5128860;27;1025;-71
2021/06/18 03:46:33;;;;;;;;;;;;;;;25.61;56.22;100554.91;5113038;27;1898;-71
2021/06/18 03:49:19;;;;;;;;;;;;;;;25.66;55.94;100554.50;5129050;27;974;-71
2021/06/18 03:52:06;;;;;;;;;;;;;;;25.54;56.28;100562.63;5128625;27;1346;-71
2021/06/18 03:54:52;;;;;;;;;;;;;;;25.62;55.75;100555.78;5128882;27;1000;-71
2021/06/18 03:57:39;;;;;;;;;;;;;;;25.61;56.03;100554.06;5128699;27;1328;-72
2021/06/18 04:00:25;;;;;;;;;;;;;;;25.54;55.88;100553.75;5112740;27;983;-71
2021/06/18 04:03:11;;;;;;;;;;;;;;;25.62;56.01;100561.09;5129257;27;1474;-70
2021/06/18 04:05:59;;;;;;;;;;;;;;;25.59;56.09;100570.22;5128804;28;1959;-70
2021/06/18 04:08:45;;;;;;;;;;;;;;;25.51;56.07;100573.56;5112706;28;678;-70
2021/06/18 04:11:30;;;;;;;;;;;;;;;25.51;56.06;100573.56;5128457;28;1265;-70
2021/06/18 04:14:16;;;;;;;;;;;;;;;25.54;55.97;100575.09;5128876;28;773;-72
2021/06/18 04:17:03;;;;;;;;;;;;;;;25.55;55.67;100576.81;5128530;28;1355;-72
2021/06/18 04:19:50;;;;;;;;;;;;;;;25.48;55.77;100575.59;5128663;28;1117;-70
2021/06/18 04:22:36;;;;;;;;;;;;;;;25.52;55.40;100583.25;5128129;28;1274;-71
2021/06/18 04:25:22;;;;;;;;;;;;;;;25.46;55.99;100591.75;5113827;27;1898;-71
2021/06/18 04:28:09;;;;;;;;;;;;;;;25.48;55.80;100592.50;5132431;27;1256;-72
2021/06/18 04:30:54;;;;;;;;;;;;;;;25.46;56.22;100588.25;5117536;27;1165;-72
2021/06/18 04:33:40;;;;;;;;;;;;;;;25.46;56.28;100590.91;5132931;27;697;-73
2021/06/18 04:36:25;;;;;;;;;;;;;;;25.43;56.38;100588.50;5132833;27;1194;-73
2021/06/18 04:39:10;;;;;;;;;;;;;;;25.41;56.52;100585.97;5132828;27;670;-72
2021/06/18 04:41:56;;;;;;;;;;;;;;;25.44;56.29;100577.69;5132586;27;1232;-72
2021/06/18 04:44:41;;;;;;;;;;;;;;;25.42;56.79;100570.81;5132328;27;1906;-71
2021/06/18 04:47:27;;;;;;;;;;;;;;;25.38;56.46;100564.91;5132207;27;1345;-70
2021/06/18 04:50:12;;;;;;;;;;;;;;;25.35;57.17;100586.50;5125773;27;1295;-70
2021/06/18 04:52:59;;;;;;;;;;;;;;;25.35;57.29;100583.00;5125185;27;1229;-69
2021/06/18 04:55:44;;;;;;;;;;;;;;;25.41;57.02;100577.16;5118224;27;961;-69
2021/06/18 04:58:30;;;;;;;;;;;;;;;25.35;56.95;100570.50;5130906;27;618;-69
2021/06/18 05:01:15;;;;;;;;;;;;;;;25.31;57.16;100586.91;5131006;27;1315;-70
2021/06/18 05:04:00;;;;;;;;;;;;;;;25.35;56.94;100586.50;5130382;27;1657;-70
2021/06/18 05:06:46;;;;;;;;;;;;;;;25.35;56.98;100597.16;5106407;27;1981;-69
2021/06/18 05:09:32;;;;;;;;;;;;;;;25.28;57.00;100598.69;5098395;28;1121;-68
2021/06/18 05:12:17;;;;;;;;;;;;;;;25.37;56.62;100605.03;5076197;28;1255;-71
2021/06/18 05:15:04;;;;;;;;;;;;;;;25.32;56.64;100596.63;5089910;28;1048;-72
2021/06/18 05:17:56;;;;;;;;;;;;;;;25.37;56.17;100589.91;5075788;28;1250;-73
2021/06/18 05:20:42;;;;;;;;;;;;;;;25.22;56.72;100590.38;5090152;28;1059;-73
2021/06/18 05:23:27;;;;;;;;;;;;;;;25.38;56.75;100593.41;5089176;28;723;-70
2021/06/18 05:26:13;;;;;;;;;;;;;;;25.32;56.61;100602.75;5091912;27;1914;-69
2021/06/18 05:28:58;;;;;;;;;;;;;;;25.36;56.63;100606.84;5095284;28;693;-72
2021/06/18 05:31:44;;;;;;;;;;;;;;;25.31;56.92;100610.91;5084684;28;1490;-71
2021/06/18 05:34:29;;;;;;;;;;;;;;;25.25;57.11;100608.78;5089875;28;1067;-72
2021/06/18 05:37:14;;;;;;;;;;;;;;;25.23;57.48;100611.56;5089329;28;1317;-69
2021/06/18 05:40:03;;;;;;;;;;;;;;;25.28;57.58;100608.50;5095729;27;1636;-69
2021/06/18 05:42:48;;;;;;;;;;;;;;;25.29;57.29;100613.69;5101864;28;1419;-68
2021/06/18 05:45:35;;;;;;;;;;;;;;;25.30;57.41;100612.72;5100948;28;1959;-67
2021/06/18 05:48:21;;;;;;;;;;;;;;;25.37;57.40;100608.56;5102676;27;1446;-72
2021/06/18 05:51:06;;;;;;;;;;;;;;;25.36;57.48;100620.19;5089772;28;1213;-69
2021/06/18 05:53:55;;;;;;;;;;;;;;;25.25;58.02;100612.28;5098663;27;1618;-68
2021/06/18 05:56:41;;;;;;;;;;;;;;;25.38;57.24;100618.22;5115574;27;1229;-69
2021/06/18 05:59:26;;;;;;;;;;;;;;;25.40;57.45;100618.09;5129877;27;1151;-69
2021/06/18 06:02:11;;;;;;;;;;;;;;;25.38;57.38;100625.41;5129336;27;1350;-71
2021/06/18 06:04:57;;;;;;;;;;;;;;;25.38;57.37;100633.41;5117386;27;1906;-72
2021/06/18 06:07:46;;;;;;;;;;;;;;;25.41;57.34;100625.97;5099972;27;1339;-71
2021/06/18 06:10:31;;;;;;;;;;;;;;;25.41;57.32;100623.28;5114044;27;1085;-74
2021/06/18 06:13:18;;;;;;;;;;;;;;;25.31;57.42;100622.41;5109550;27;1286;-73
2021/06/18 06:16:03;;;;;;;;;;;;;;;25.41;56.89;100633.97;5129447;27;1231;-73
2021/06/18 06:18:49;;;;;;;;;;;;;;;25.44;56.63;100644.34;5128976;27;642;-73
2021/06/18 06:21:35;;;;;;;;;;;;;;;25.43;56.41;100642.69;5129581;27;1348;-74
2021/06/18 06:24:20;;;;;;;;;;;;;;;25.43;56.41;100633.84;5108584;27;1345;-74
2021/06/18 06:27:06;;;;;;;;;;;;;;;25.46;56.16;100636.25;5072899;28;1971;-71
2021/06/18 06:29:52;;;;;;;;;;;;;;;25.52;55.90;100639.25;5082420;27;1016;-72
2021/06/18 06:32:37;;;;;;;;;;;;;;;25.50;56.17;100643.03;5129512;27;1423;-71
2021/06/18 06:35:24;;;;;;;;;;;;;;;25.51;55.89;100650.03;5128633;27;972;-71
2021/06/18 06:38:09;;;;;;;;;;;;;;;25.49;55.94;100644.84;5129590;27;1204;-77
2021/06/18 06:40:55;;;;;;;;;;;;;;;25.53;55.69;100648.94;5129231;27;1042;-71
2021/06/18 06:43:41;;;;;;;;;;;;;;;25.53;55.44;100656.94;5110337;27;1616;-68
2021/06/18 06:46:26;;;;;;;;;;;;;;;25.53;55.52;100650.78;5104883;27;1902;-69
2021/06/18 06:49:12;;;;;;;;;;;;;;;25.49;55.09;100658.19;5091990;27;971;-68
2021/06/18 06:51:58;;;;;;;;;;;;;;;25.54;55.39;100658.63;5091220;28;1260;-68
2021/06/18 06:54:43;;;;;;;;;;;;;;;25.61;55.34;100661.63;5117770;27;1526;-68
2021/06/18 06:57:28;;;;;;;;;;;;;;;25.64;55.23;100661.34;5106991;27;1330;-68
2021/06/18 07:00:14;;;;;;;;;;;;;;;25.57;54.23;100652.19;5111254;27;1584;-66
2021/06/18 07:02:59;;;;;;;;;;;;;;;25.61;54.28;100655.44;5121639;27;1427;-66
2021/06/18 07:05:47;;;;;;;;;;;;;;;25.66;54.00;100653.19;5113510;27;1953;-66
2021/06/18 07:08:32;;;;;;;;;;;;;;;25.61;53.76;100639.41;5115999;27;1450;-65
2021/06/18 07:11:17;;;;;;;;;;;;;;;25.65;54.00;100643.53;5101697;28;1752;-67
2021/06/18 07:14:03;;;;;;;;;;;;;;;25.70;53.61;100635.94;5107964;27;965;-65
2021/06/18 07:16:48;;;;;;;;;;;;;;;25.68;53.75;100632.59;5127608;27;1364;-67
2021/06/18 07:19:34;;;;;;;;;;;;;;;25.68;53.75;100643.25;5109382;27;1200;-66
2021/06/18 07:22:21;;;;;;;;;;;;;;;25.65;53.05;100662.19;5091642;28;1285;-68
2021/06/18 07:25:07;;;;;;;;;;;;;;;25.70;53.22;100663.47;5107013;28;1096;-71
2021/06/18 07:27:55;;;;;;;;;;;;;;;25.70;53.25;100665.28;5107662;28;1252;-69
2021/06/18 07:30:41;;;;;;;;;;;;;;;25.74;53.08;100669.41;5106688;28;1113;-66
2021/06/18 07:33:26;;;;;;;;;;;;;;;25.79;53.33;100672.50;5106380;28;635;-65
2021/06/18 07:36:12;;;;;;;;;;;;;;;25.73;53.17;100652.53;5110385;27;1248;-67
2021/06/18 07:38:57;;;;;;;;;;;;;;;25.81;52.48;100644.69;5127490;27;615;-72
2021/06/18 07:41:43;;;;;;;;;;;;;;;25.85;52.57;100659.47;5128107;27;1312;-71
2021/06/18 07:44:28;;;;;;;;;;;;;;;25.85;52.55;100663.94;5097016;28;1521;-73
2021/06/18 07:47:14;;;;;;;;;;;;;;;25.87;52.60;100662.81;5112754;27;1981;-71
2021/06/18 07:49:59;;;;;;;;;;;;;;;25.89;52.51;100655.56;5114839;27;1063;-67
2021/06/18 07:52:49;;;;;;;;;;;;;;;25.85;52.71;100664.81;5104899;27;1385;-68
2021/06/18 07:55:35;;;;;;;;;;;;;;;25.91;52.97;100658.06;5112350;27;1161;-70
2021/06/18 07:58:20;;;;;;;;;;;;;;;25.95;52.46;100659.50;5106946;28;1371;-68
2021/06/18 08:01:06;;;;;;;;;;;;;;;25.96;52.33;100658.53;5107531;28;1255;-69
2021/06/18 08:03:52;;;;;;;;;;;;;;;26.01;52.31;100664.28;5114874;28;1572;-71
2021/06/18 08:06:38;;;;;;;;;;;;;;;26.02;52.47;100658.81;5125761;28;1910;-69
2021/06/18 08:09:23;;;;;;;;;;;;;;;26.02;52.56;100674.81;5110371;28;1299;-68
2021/06/18 08:12:09;;;;;;;;;;;;;;;26.02;52.38;100666.81;5115745;28;1571;-66
2021/06/18 08:14:54;;;;;;;;;;;;;;;26.04;52.97;100661.34;5114431;28;1105;-66
2021/06/18 08:17:39;;;;;;;;;;;;;;;26.09;52.36;100669.78;5087036;28;1256;-67
2021/06/18 08:20:26;;;;;;;;;;;;;;;26.10;52.21;100676.81;5098876;28;1046;-66
2021/06/18 08:23:12;;;;;;;;;;;;;;;26.10;52.27;100679.50;5106767;28;1362;-64
2021/06/18 08:25:58;;;;;;;;;;;;;;;26.12;52.43;100677.53;5089463;28;1980;-65
2021/06/18 08:28:44;;;;;;;;;;;;;;;26.20;52.01;100674.22;5106351;28;630;-69
2021/06/18 08:31:29;;;;;;;;;;;;;;;26.17;52.15;100670.00;5086519;28;1250;-71
2021/06/18 08:34:14;;;;;;;;;;;;;;;26.18;52.39;100658.31;5103063;28;1554;-72
2021/06/18 08:37:00;;;;;;;;;;;;;;;26.19;52.23;100662.69;5108046;28;1338;-72
2021/06/18 08:39:45;;;;;;;;;;;;;;;26.21;52.79;100657.19;5117470;28;1097;-71
2021/06/18 08:42:31;;;;;;;;;;;;;;;26.20;52.41;100653.72;5113117;28;1472;-68
2021/06/18 08:45:17;;;;;;;;;;;;;;;26.25;52.91;100654.13;5118248;28;1490;-68
2021/06/18 08:48:03;;;;;;;;;;;;;;;26.22;52.68;100667.75;5119971;28;1449;-70
2021/06/18 08:50:50;;;;;;;;;;;;;;;26.30;53.07;100675.91;5116456;28;1322;-70
2021/06/18 08:53:36;;;;;;;;;;;;;;;26.30;52.31;100681.25;5115847;28;1287;-72
2021/06/18 08:56:21;;;;;;;;;;;;;;;26.31;52.27;100684.75;5099811;28;1361;-71
2021/06/18 08:59:07;;;;;;;;;;;;;;;26.31;52.08;100676.75;5089906;28;1144;-77
2021/06/18 09:01:52;;;;;;;;;;;;;;;26.36;52.53;100693.19;5090430;28;1382;-71
2021/06/18 09:04:56;;;;;;;;;;;;;;;26.39;52.70;100693.78;5111261;28;1282;-70
2021/06/18 09:07:48;;;;;;;;;;;;;;;26.46;52.94;100694.06;5106242;28;1905;-70
2021/06/18 09:10:42;;;;;;;;;;;;;;;26.49;52.85;100697.31;5119506;27;1137;-71
2021/06/18 09:13:31;;;;;;;;;;;;;;;26.50;52.88;100701.69;5129823;27;631;-71
2021/06/18 09:16:21;;;;;;;;;;;;;;;26.57;52.56;100705.47;5102431;28;1417;-68
2021/06/18 09:19:22;;;;;;;;;;;;;;;26.52;52.60;100715.72;5111464;27;961;-76
2021/06/18 09:22:09;;;;;;;;;;;;;;;26.57;52.73;100718.81;5130799;27;1243;-72
2021/06/18 09:24:59;;;;;;;;;;;;;;;26.58;53.07;100727.69;5129623;27;1048;-72
2021/06/18 09:27:51;;;;;;;;;;;;;;;26.55;52.62;100723.47;5128830;27;1968;-69
2021/06/18 09:30:37;;;;;;;;;;;;;;;26.63;52.66;100735.31;5128054;27;1379;-77
2021/06/18 09:33:24;;;;;;;;;;;;;;;26.53;52.99;100738.81;5126541;27;1406;-74
2021/06/18 09:36:10;;;;;;;;;;;;;;;26.53;52.92;100737.94;5128382;27;1300;-74
2021/06/18 09:38:56;;;;;;;;;;;;;;;26.52;52.90;100738.94;5128492;27;706;-74
2021/06/18 09:41:43;;;;;;;;;;;;;;;26.49;52.55;100739.19;5129457;27;1278;-74
2021/06/18 09:44:30;;;;;;;;;;;;;;;26.54;52.71;100745.81;5128697;27;1114;-74
2021/06/18 09:47:20;;;;;;;;;;;;;;;26.59;52.41;100745.41;5129733;27;1902;-74
2021/06/18 09:50:15;;;;;;;;;;;;;;;26.59;52.47;100745.41;5113590;27;1110;-74
2021/06/18 09:53:13;;;;;;;;;;;;;;;26.56;52.67;100751.88;5116970;27;1297;-74
2021/06/18 09:56:00;;;;;;;;;;;;;;;26.53;52.58;100746.81;5107581;28;1280;-75
2021/06/18 09:58:47;;;;;;;;;;;;;;;26.57;52.67;100742.88;5092950;28;558;-74
2021/06/18 10:01:34;;;;;;;;;;;;;;;26.51;52.57;100737.22;5088200;28;1354;-74
2021/06/18 10:04:23;;;;;;;;;;;;;;;26.51;52.54;100742.56;5078269;27;1442;-74
2021/06/18 10:07:09;;;;;;;;;;;;;;;26.56;52.44;100756.38;5129120;27;1897;-74
2021/06/18 10:09:55;;;;;;;;;;;;;;;26.55;52.57;100747.50;5129558;27;1034;-74
2021/06/18 10:12:40;;;;;;;;;;;;;;;26.56;52.70;100749.22;5129389;27;1243;-73
2021/06/18 10:15:28;;;;;;;;;;;;;;;26.55;52.33;100750.19;5128781;27;1110;-73
2021/06/18 10:18:13;;;;;;;;;;;;;;;26.56;52.63;100748.38;5128711;27;1318;-74
2021/06/18 10:21:01;;;;;;;;;;;;;;;26.60;52.14;100752.44;5128169;27;1274;-75
2021/06/18 10:23:54;;;;;;;;;;;;;;;26.58;52.52;100757.06;5127502;27;666;-75
2021/06/18 10:26:40;;;;;;;;;;;;;;;26.63;52.44;100754.00;5127927;27;1906;-75
2021/06/18 10:29:36;;;;;;;;;;;;;;;26.63;52.48;100754.00;5129305;27;1028;-78
2021/06/18 10:32:27;;;;;;;;;;;;;;;26.63;52.71;100761.00;5129254;27;1227;-76
2021/06/18 10:35:33;;;;;;;;;;;;;;;26.68;52.54;100759.78;5119102;27;1114;-76
2021/06/18 10:38:36;;;;;;;;;;;;;;;26.69;52.69;100761.47;5108496;28;1399;-76
2021/06/18 10:41:26;;;;;;;;;;;;;;;26.68;53.09;100741.06;5120112;27;1287;-75
2021/06/18 10:44:11;;;;;;;;;;;;;;;26.70;53.81;100736.41;5112408;27;734;-74
2021/06/18 10:46:56;;;;;;;;;;;;;;;26.71;53.27;100730.09;5128115;27;1972;-71
2021/06/18 10:49:42;;;;;;;;;;;;;;;26.70;53.44;100731.06;5126860;27;922;-73
2021/06/18 10:52:38;;;;;;;;;;;;;;;26.70;53.42;100739.94;5117016;27;1294;-72
2021/06/18 10:55:43;;;;;;;;;;;;;;;26.73;53.89;100728.13;5107292;28;1328;-71
2021/06/18 10:58:48;;;;;;;;;;;;;;;26.77;53.75;100726.88;5087366;28;646;-72
2021/06/18 11:01:36;;;;;;;;;;;;;;;26.76;53.84;100725.16;5087476;28;1332;-71
2021/06/18 11:04:43;;;;;;;;;;;;;;;26.77;54.03;100730.41;5086626;28;1227;-71
2021/06/18 11:07:39;;;;;;;;;;;;;;;26.77;54.14;100734.88;5086527;28;1911;-72
2021/06/18 11:10:29;;;;;;;;;;;;;;;26.74;54.75;100728.00;5086340;28;1119;-71
2021/06/18 11:13:18;;;;;;;;;;;;;;;26.77;54.23;100730.41;5086468;28;1302;-71
2021/06/18 11:16:03;;;;;;;;;;;;;;;26.79;54.66;100730.25;5096625;28;1502;-71
2021/06/18 11:18:48;;;;;;;;;;;;;;;26.80;54.50;100726.63;5107048;28;635;-71
2021/06/18 11:21:34;;;;;;;;;;;;;;;26.78;54.63;100723.22;5106959;28;1340;-70
2021/06/18 11:24:36;;;;;;;;;;;;;;;26.81;54.99;100720.31;5106900;28;631;-71
2021/06/18 11:27:25;;;;;;;;;;;;;;;26.82;54.72;100712.13;5096312;27;1910;-71
2021/06/18 11:30:28;;;;;;;;;;;;;;;26.87;54.79;100717.88;5113609;27;1513;-66
2021/06/18 11:33:33;;;;;;;;;;;;;;;26.90;54.95;100706.91;5086278;28;1463;-65
2021/06/18 11:36:22;;;;;;;;;;;;;;;26.88;54.83;100698.22;5085864;28;1378;-72
2021/06/18 11:39:08;;;;;;;;;;;;;;;26.91;55.71;100702.41;5070692;28;821;-72
2021/06/18 11:41:56;;;;;;;;;;;;;;;26.91;55.31;100697.94;5070849;28;1371;-76
2021/06/18 11:44:42;;;;;;;;;;;;;;;26.89;55.57;100712.41;5086101;28;1653;-76
2021/06/18 11:47:33;;;;;;;;;;;;;;;26.88;55.48;100708.03;5085637;28;1938;-74
2021/06/18 11:50:48;;;;;;;;;;;;;;;26.90;55.59;100712.25;5070143;28;926;-73
2021/06/18 11:53:37;;;;;;;;;;;;;;;26.93;56.31;100705.81;5093361;27;1234;-73
2021/06/18 11:56:34;;;;;;;;;;;;;;;26.93;55.54;100697.81;5118850;27;1396;-73
2021/06/18 11:59:19;;;;;;;;;;;;;;;26.92;55.59;100698.78;5111508;27;747;-75
2021/06/18 12:02:14;;;;;;;;;;;;;;;26.94;55.86;100704.81;5128291;27;1281;-76
2021/06/18 12:05:08;;;;;;;;;;;;;;;26.94;55.76;100707.50;5090220;28;1104;-79
2021/06/18 12:07:53;;;;;;;;;;;;;;;26.95;55.44;100709.19;5070775;28;1938;-78
2021/06/18 12:10:39;;;;;;;;;;;;;;;26.98;56.05;100715.09;5086689;28;1046;-75
2021/06/18 12:13:27;;;;;;;;;;;;;;;26.93;56.79;100711.16;5090461;28;658;-71
2021/06/18 12:16:12;;;;;;;;;;;;;;;26.96;56.67;100706.34;5115387;28;1496;-75
2021/06/18 12:19:15;;;;;;;;;;;;;;;26.99;56.70;100703.41;5105573;28;627;-72
2021/06/18 12:22:04;;;;;;;;;;;;;;;27.03;56.14;100702.13;5119715;28;1298;-71
2021/06/18 12:24:53;;;;;;;;;;;;;;;27.00;55.50;100712.25;5125881;28;976;-75
2021/06/18 12:27:39;;;;;;;;;;;;;;;27.02;55.94;100718.34;5105386;28;1914;-74
2021/06/18 12:30:28;;;;;;;;;;;;;;;27.11;57.09;100728.19;5115312;28;1384;-68
2021/06/18 12:33:16;;;;;;;;;;;;;;;27.21;56.69;100725.50;5126490;28;1291;-68
2021/06/18 12:36:02;;;;;;;;;;;;;;;27.19;57.25;100725.63;5126602;28;1321;-67
2021/06/18 12:38:48;;;;;;;;;;;;;;;27.21;56.67;100718.31;5126241;28;638;-66
2021/06/18 12:41:33;;;;;;;;;;;;;;;27.23;56.66;100723.53;5110706;28;1366;-66
2021/06/18 12:44:28;;;;;;;;;;;;;;;27.28;57.92;100716.75;5126773;28;619;-65
2021/06/18 12:47:23;;;;;;;;;;;;;;;27.23;57.51;100711.00;5128715;27;1984;-67
2021/06/18 12:50:27;;;;;;;;;;;;;;;27.17;57.30;100714.25;5125221;27;1442;-66
2021/06/18 12:53:14;;;;;;;;;;;;;;;27.18;56.64;100721.25;5105405;28;1376;-65
2021/06/18 12:56:10;;;;;;;;;;;;;;;27.18;57.84;100726.59;5105872;27;1392;-69
2021/06/18 12:58:56;;;;;;;;;;;;;;;27.17;57.39;100719.59;5108109;28;1206;-65
2021/06/18 13:01:42;;;;;;;;;;;;;;;27.15;57.52;100726.88;5106501;27;1318;-66
2021/06/18 13:04:32;;;;;;;;;;;;;;;27.14;57.30;100719.88;5107357;28;1164;-66
2021/06/18 13:07:33;;;;;;;;;;;;;;;27.16;57.11;100723.25;5109263;28;1984;-66
2021/06/18 13:10:19;;;;;;;;;;;;;;;27.15;56.77;100717.03;5109883;27;1244;-66
2021/06/18 13:13:04;;;;;;;;;;;;;;;27.14;56.78;100719.88;5107181;28;1406;-62
2021/06/18 13:15:50;;;;;;;;;;;;;;;27.13;56.97;100728.88;5107039;27;1672;-64
2021/06/18 13:18:52;;;;;;;;;;;;;;;27.15;57.27;100732.22;5109395;27;1411;-65
2021/06/18 13:21:50;;;;;;;;;;;;;;;27.14;57.05;100731.41;5108746;27;1374;-66
2021/06/18 13:24:44;;;;;;;;;;;;;;;27.15;56.79;100727.75;5090615;28;1089;-66
2021/06/18 13:27:31;;;;;;;;;;;;;;;27.20;57.59;100742.53;5105479;28;1966;-64
2021/06/18 13:30:17;;;;;;;;;;;;;;;27.19;56.60;100739.00;5116287;27;1522;-64
2021/06/18 13:33:03;;;;;;;;;;;;;;;27.19;57.70;100741.69;5113064;27;1298;-64
2021/06/18 13:35:49;;;;;;;;;;;;;;;27.16;56.85;100744.63;5112312;27;1148;-65
2021/06/18 13:38:35;;;;;;;;;;;;;;;27.17;56.47;100751.69;5129891;27;717;-64
2021/06/18 13:41:32;;;;;;;;;;;;;;;27.15;56.33;100756.31;5130141;27;1462;-64
2021/06/18 13:44:17;;;;;;;;;;;;;;;27.16;57.51;100760.69;5129723;27;682;-65
2021/06/18 13:47:03;;;;;;;;;;;;;;;27.17;56.92;100749.00;5128316;27;1897;-67
2021/06/18 13:49:58;;;;;;;;;;;;;;;27.17;56.05;100751.69;5128963;27;1197;-66
2021/06/18 13:52:46;;;;;;;;;;;;;;;27.15;56.80;100754.47;5088861;28;1281;-66
2021/06/18 13:55:32;;;;;;;;;;;;;;;27.18;57.37;100747.19;5100979;27;1171;-65
2021/06/18 13:58:17;;;;;;;;;;;;;;;27.11;57.64;100747.72;5129501;27;1305;-65
2021/06/18 14:01:02;;;;;;;;;;;;;;;27.15;57.28;100754.47;5129454;27;1283;-63
2021/06/18 14:03:48;;;;;;;;;;;;;;;27.15;57.32;100758.97;5107831;28;1218;-63
2021/06/18 14:06:34;;;;;;;;;;;;;;;27.16;57.27;100755.31;5109318;28;1283;-63
2021/06/18 14:09:20;;;;;;;;;;;;;;;27.16;57.64;100763.34;5108809;28;654;-65
2021/06/18 14:12:07;;;;;;;;;;;;;;;27.15;57.70;100765.16;5108464;28;1511;-65
2021/06/18 14:17:44;;;;;;;;;;;;;;;27.20;58.70;100758.56;5109497;28;1294;-66
2021/06/18 14:20:29;;;;;;;;;;;;;;;27.23;58.37;100750.25;5108168;28;1100;-68
2021/06/18 14:23:17;;;;;;;;;;;;;;;27.26;58.45;100745.47;5089538;28;1323;-68
2021/06/18 14:26:03;;;;;;;;;;;;;;;27.21;58.68;100736.19;5087165;28;1406;-69
2021/06/18 14:28:48;;;;;;;;;;;;;;;27.21;57.96;100715.63;5091866;28;1964;-68
2021/06/18 14:31:34;;;;;;;;;;;;;;;27.17;56.99;100730.28;5097694;28;1272;-69
2021/06/18 14:34:20;;;;;;;;;;;;;;;27.23;57.96;100732.41;5096450;28;1503;-71
2021/06/18 14:37:06;;;;;;;;;;;;;;;27.25;57.81;100735.75;5107918;28;1424;-67